Letzte 24h
Datum & Zeit Temp. Luft-
feuchte
Wind Nieder-
schlag
Luftdruck Tendenz
IN OUT IN OUT Richtung Min. Max.
2021.11.30 18:59 5.8 °C 2.8 °C 65% 75% SW 227 ° 27 km/h 54 km/h 20.1 mm 1006.40 hPa gleichbleibend
19:59 5.8 °C 2.7 °C 65% 77% WSW 245 ° 26 km/h 51 km/h 2.4 mm 1007.00 hPa langsam steigend
20:59 5.8 °C 3.2 °C 66% 79% SW 230 ° 25 km/h 55 km/h 21.9 mm 1006.80 hPa langsam steigend
21:59 5.8 °C 3.5 °C 67% 79% SW 229 ° 25 km/h 61 km/h 45.3 mm 1007.50 hPa langsam steigend
22:59 5.8 °C 3.8 °C 68% 79% SSW 214 ° 25 km/h 45 km/h 33.3 mm 1008.50 hPa langsam steigend
23:59 5.9 °C 4.1 °C 68% 78% SW 214 ° 21 km/h 44 km/h 6.3 mm 1008.70 hPa steigend
2021.12.01 00:59 6.0 °C 4.6 °C 68% 78% SW 220 ° 20 km/h 42 km/h 0.9 mm 1009.30 hPa steigend
01:59 6.0 °C 4.7 °C 69% 79% SW 233 ° 20 km/h 44 km/h 0.9 mm 1009.50 hPa langsam steigend
02:59 6.2 °C 5.2 °C 69% 80% SSW 210 ° 23 km/h 45 km/h 2.7 mm 1009.80 hPa langsam steigend
03:59 6.3 °C 5.5 °C 70% 80% SW 220 ° 20 km/h 40 km/h 0.3 mm 1009.40 hPa langsam steigend
04:59 6.5 °C 5.3 °C 71% 81% SW 236 ° 23 km/h 40 km/h 3.0 mm 1008.60 hPa langsam fallend
05:59 6.6 °C 5.6 °C 71% 80% SW 223 ° 21 km/h 40 km/h 0.0 mm 1008.70 hPa langsam fallend
06:59 6.8 °C 5.7 °C 71% 81% W 263 ° 15 km/h 30 km/h 0.0 mm 1009.00 hPa langsam fallend
07:59 7.0 °C 6.0 °C 71% 82% SSW 206 ° 12 km/h 27 km/h 0.0 mm 1008.90 hPa langsam steigend
08:59 7.1 °C 6.7 °C 71% 79% SSW 205 ° 11 km/h 45 km/h 0.0 mm 1008.20 hPa langsam fallend
09:59 7.2 °C 7.0 °C 72% 78% SW 216 ° 12 km/h 32 km/h 0.0 mm 1008.10 hPa langsam fallend
10:59 7.6 °C 7.2 °C 73% 77% SW 217 ° 13 km/h 26 km/h 0.3 mm 1007.40 hPa langsam fallend
11:59 7.8 °C 7.7 °C 73% 76% SSW 201 ° 13 km/h 24 km/h 0.0 mm 1006.00 hPa fallend
12:59 8.3 °C 8.0 °C 73% 74% SSW 198 ° 6 km/h 16 km/h 0.0 mm 1005.00 hPa fallend
13:59 8.6 °C 8.0 °C 73% 74% SW 226 ° 6 km/h 13 km/h 0.0 mm 1005.00 hPa fallend
14:59 8.8 °C 10.9 °C 72% 63% SO 138 ° 2 km/h 9 km/h 0.0 mm 1003.70 hPa fallend
15:59 9.1 °C 8.5 °C 73% 69% S 174 ° 3 km/h 16 km/h 0.0 mm 1002.30 hPa fallend
16:59 9.1 °C 8.3 °C 72% 70% S 175 ° 4 km/h 15 km/h 0.0 mm 1001.80 hPa fallend
17:59 8.9 °C 8.3 °C 73% 69% S 187 ° 1 km/h 7 km/h 0.0 mm 1001.70 hPa fallend

 

Verlauf: letzte 24h
WIND   Windrose
(Klicke ins Bild, um den Hintergrund abzuschalten)
WIND   Windverkauf 2.5h
TEMP   Temperatur 2.5h
Druck   Luftdruck 2.5h
Regen   Luftdruck 2.5h